Terminal Aerodrome Forecast
Issued by NWS Charleston, WV

Current Version | Previous Version | Text Only | Print | Product List | Glossary Off
Versions: 1 2 3 4 5 6 7 8 9 10 11 12 13 14 15 16 17 18 19 20 21

000
FTUS41 KRLX 230500 RRA
TAFEKN
TAF
KEKN 230550Z 2306/2406 00000KT P6SM OVC025
     FM231100 00000KT P6SM SCT020
     FM232200 16006KT 5SM -RA OVC025
     FM240000 07005KT 4SM -RA BR OVC015
     FM240200 10005KT 1SM -RA BR OVC008=

USA.gov is the U.S. government's official web portal to all federal, state and local government web resources and services.